N914 KTMB-KTPA
Flight info
| Callsign | N914 |
|---|---|
| Flight time | N/A |
| Altitude | 9999 |
| Route | MIA2 BNGOS BLFRG BLFRG3 |
| Aircraft | K350/L-SDE2E3FGHIJ1RWXY/C |
Departure
| Time | 2026-05-03 21:38 |
|---|---|
| Airport | Miami Executive Airport (KTMB) |
Arrival
| Time | N/A |
|---|---|
| Airport | Tampa International Airport (KTPA) |
| Time | Latitude | Longitude | Altitude | Speed | Heading |
|---|---|---|---|---|---|
| 2026-05-03 21:15 | 25.64363 | -80.42426 | 17 ft | 0 kts | 268° |
| 2026-05-03 21:15 | 25.64406 | -80.42455 | 17 ft | 16 kts | 4° |
| 2026-05-03 21:16 | 25.64437 | -80.42453 | 18 ft | 0 kts | 357° |
| 2026-05-03 21:16 | 25.64480 | -80.42455 | 18 ft | 21 kts | 357° |
| 2026-05-03 21:16 | 25.64553 | -80.42469 | 18 ft | 1 kts | 50° |
| 2026-05-03 21:16 | 25.64554 | -80.42452 | 19 ft | 2 kts | 129° |
| 2026-05-03 21:17 | 25.64553 | -80.42451 | 19 ft | 0 kts | 137° |
| 2026-05-03 21:24 | 25.64552 | -80.42449 | 28 ft | 0 kts | 136° |
| 2026-05-03 21:31 | 25.64550 | -80.42448 | 28 ft | 0 kts | 136° |
| 2026-05-03 21:34 | 25.64482 | -80.42461 | 18 ft | 23 kts | 231° |
| 2026-05-03 21:35 | 25.64466 | -80.42597 | 19 ft | 17 kts | 267° |
| 2026-05-03 21:35 | 25.64458 | -80.42760 | 17 ft | 24 kts | 268° |
| 2026-05-03 21:35 | 25.64449 | -80.42965 | 14 ft | 28 kts | 267° |
| 2026-05-03 21:35 | 25.64439 | -80.43199 | 10 ft | 36 kts | 266° |
| 2026-05-03 21:36 | 25.64428 | -80.43467 | 10 ft | 29 kts | 267° |
| 2026-05-03 21:36 | 25.64418 | -80.43701 | 13 ft | 31 kts | 267° |
| 2026-05-03 21:36 | 25.64409 | -80.43945 | 16 ft | 32 kts | 266° |
| 2026-05-03 21:36 | 25.64406 | -80.44014 | 18 ft | 13 kts | 269° |
| 2026-05-03 21:37 | 25.64387 | -80.44085 | 20 ft | 5 kts | 205° |
| 2026-05-03 21:37 | 25.64376 | -80.44088 | 20 ft | 0 kts | 183° |
| 2026-05-03 21:37 | 25.64320 | -80.44074 | 19 ft | 10 kts | 142° |
| 2026-05-03 21:37 | 25.64300 | -80.43819 | 14 ft | 77 kts | 94° |
| 2026-05-03 21:38 | 25.64341 | -80.42958 | 102 ft | 140 kts | 88° |
| 2026-05-03 21:38 | 25.64397 | -80.41761 | 501 ft | 167 kts | 88° |
| 2026-05-03 21:38 | 25.64429 | -80.40388 | 945 ft | 188 kts | 89° |
| 2026-05-03 21:38 | 25.64456 | -80.38935 | 1695 ft | 183 kts | 88° |
| 2026-05-03 21:39 | 25.64506 | -80.37619 | 2205 ft | 170 kts | 86° |
| 2026-05-03 21:39 | 25.64596 | -80.36205 | 2275 ft | 190 kts | 85° |
| 2026-05-03 21:39 | 25.64744 | -80.34782 | 2798 ft | 181 kts | 82° |
| 2026-05-03 21:39 | 25.64956 | -80.33370 | 3131 ft | 196 kts | 79° |
| 2026-05-03 21:40 | 25.65196 | -80.31832 | 3486 ft | 204 kts | 82° |
| 2026-05-03 21:40 | 25.65351 | -80.30307 | 4124 ft | 196 kts | 85° |
| 2026-05-03 21:40 | 25.65665 | -80.28810 | 4465 ft | 209 kts | 64° |
| 2026-05-03 21:40 | 25.66507 | -80.27455 | 4902 ft | 218 kts | 46° |
| 2026-05-03 21:41 | 25.67619 | -80.26395 | 5807 ft | 203 kts | 30° |
| 2026-05-03 21:41 | 25.68887 | -80.25750 | 6562 ft | 203 kts | 11° |
| 2026-05-03 21:41 | 25.70334 | -80.25562 | 7000 ft | 215 kts | 354° |
| 2026-05-03 21:41 | 25.71819 | -80.25571 | 7805 ft | 207 kts | 354° |
| 2026-05-03 21:42 | 25.73200 | -80.25612 | 8838 ft | 194 kts | 352° |
| 2026-05-03 21:42 | 25.74585 | -80.25673 | 9498 ft | 208 kts | 352° |
| 2026-05-03 21:42 | 25.76104 | -80.25740 | 9952 ft | 226 kts | 353° |
| 2026-05-03 21:42 | 25.77735 | -80.25793 | 10096 ft | 248 kts | 354° |
| 2026-05-03 21:43 | 25.79529 | -80.25836 | 10134 ft | 262 kts | 354° |
| 2026-05-03 21:43 | 25.81382 | -80.25858 | 10186 ft | 271 kts | 355° |
| 2026-05-03 21:43 | 25.83316 | -80.25899 | 10203 ft | 273 kts | 354° |
| 2026-05-03 21:43 | 25.85222 | -80.25978 | 10152 ft | 276 kts | 353° |
| 2026-05-03 21:44 | 25.86493 | -80.26055 | 10099 ft | 276 kts | 352° |
| 2026-05-03 21:44 | 25.88398 | -80.26203 | 10144 ft | 272 kts | 351° |
| 2026-05-03 21:44 | 25.90294 | -80.26357 | 10092 ft | 274 kts | 352° |
| 2026-05-03 21:44 | 25.92210 | -80.26482 | 10016 ft | 275 kts | 352° |
| 2026-05-03 21:45 | 25.94106 | -80.26577 | 10106 ft | 270 kts | 354° |
| 2026-05-03 21:45 | 25.95982 | -80.26596 | 10081 ft | 271 kts | 356° |
| 2026-05-03 21:45 | 25.97884 | -80.26528 | 10003 ft | 274 kts | 358° |
| 2026-05-03 21:45 | 25.99787 | -80.26454 | 10021 ft | 271 kts | 356° |
| 2026-05-03 21:46 | 26.01668 | -80.26442 | 10056 ft | 269 kts | 356° |
| 2026-05-03 21:46 | 26.03521 | -80.26405 | 10052 ft | 270 kts | 357° |
| 2026-05-03 21:46 | 26.05408 | -80.26356 | 9990 ft | 273 kts | 356° |
| 2026-05-03 21:46 | 26.07300 | -80.26362 | 10011 ft | 268 kts | 349° |
| 2026-05-03 21:47 | 26.09043 | -80.26947 | 10013 ft | 259 kts | 326° |
| 2026-05-03 21:47 | 26.10390 | -80.28207 | 10016 ft | 251 kts | 304° |
| 2026-05-03 21:47 | 26.11161 | -80.29919 | 10022 ft | 248 kts | 283° |
| 2026-05-03 21:47 | 26.11562 | -80.31789 | 10028 ft | 249 kts | 282° |
| 2026-05-03 21:48 | 26.12071 | -80.33631 | 10030 ft | 251 kts | 289° |
| 2026-05-03 21:48 | 26.12854 | -80.35378 | 10029 ft | 254 kts | 298° |
| 2026-05-03 21:48 | 26.13798 | -80.37026 | 10032 ft | 257 kts | 299° |
| 2026-05-03 21:48 | 26.14739 | -80.38739 | 10041 ft | 266 kts | 295° |
| 2026-05-03 21:49 | 26.15689 | -80.40575 | 10026 ft | 278 kts | 298° |
| 2026-05-03 21:49 | 26.16660 | -80.42429 | 10022 ft | 274 kts | 297° |
| 2026-05-03 21:49 | 26.17629 | -80.44250 | 10025 ft | 271 kts | 297° |
| 2026-05-03 21:49 | 26.18575 | -80.46041 | 10022 ft | 265 kts | 297° |
| 2026-05-03 21:50 | 26.19495 | -80.47796 | 10025 ft | 260 kts | 297° |
| 2026-05-03 21:50 | 26.20402 | -80.49518 | 10024 ft | 256 kts | 297° |
| 2026-05-03 21:50 | 26.21288 | -80.51200 | 10025 ft | 254 kts | 297° |
| 2026-05-03 21:50 | 26.22181 | -80.52896 | 10023 ft | 253 kts | 297° |
| 2026-05-03 21:51 | 26.23068 | -80.54583 | 10030 ft | 253 kts | 297° |
| 2026-05-03 21:51 | 26.23960 | -80.56280 | 10032 ft | 255 kts | 297° |
| 2026-05-03 21:51 | 26.24861 | -80.57989 | 10020 ft | 256 kts | 297° |
| 2026-05-03 21:51 | 26.25760 | -80.59696 | 10023 ft | 254 kts | 297° |
| 2026-05-03 21:52 | 26.26650 | -80.61394 | 10026 ft | 253 kts | 297° |
| 2026-05-03 21:52 | 26.27527 | -80.63063 | 10038 ft | 253 kts | 294° |
| 2026-05-03 21:52 | 26.28437 | -80.64803 | 10033 ft | 273 kts | 301° |
| 2026-05-03 21:52 | 26.29423 | -80.66664 | 10034 ft | 273 kts | 297° |
| 2026-05-03 21:53 | 26.30380 | -80.68501 | 10039 ft | 275 kts | 297° |
| 2026-05-03 21:53 | 26.31345 | -80.70351 | 10044 ft | 275 kts | 296° |
| 2026-05-03 21:53 | 26.32307 | -80.72184 | 10030 ft | 280 kts | 299° |
| 2026-05-03 21:53 | 26.33292 | -80.74036 | 10025 ft | 273 kts | 297° |
| 2026-05-03 21:54 | 26.34233 | -80.75847 | 10027 ft | 267 kts | 297° |
| 2026-05-03 21:54 | 26.35158 | -80.77621 | 10031 ft | 263 kts | 297° |
| 2026-05-03 21:54 | 26.36077 | -80.79377 | 10026 ft | 260 kts | 297° |
| 2026-05-03 21:54 | 26.36984 | -80.81111 | 10026 ft | 258 kts | 297° |
| 2026-05-03 21:55 | 26.37890 | -80.82842 | 10030 ft | 258 kts | 297° |
| 2026-05-03 21:55 | 26.38795 | -80.84574 | 10027 ft | 259 kts | 297° |
| 2026-05-03 21:55 | 26.39693 | -80.86289 | 10027 ft | 257 kts | 297° |
| 2026-05-03 21:55 | 26.40605 | -80.88040 | 10022 ft | 257 kts | 297° |
| 2026-05-03 21:56 | 26.41491 | -80.89736 | 10027 ft | 256 kts | 297° |
| 2026-05-03 21:56 | 26.42384 | -80.91448 | 10025 ft | 255 kts | 297° |
| 2026-05-03 21:56 | 26.43278 | -80.93158 | 10040 ft | 257 kts | 296° |
| 2026-05-03 21:56 | 26.44199 | -80.94925 | 10040 ft | 270 kts | 298° |
| 2026-05-03 21:57 | 26.45151 | -80.96746 | 10027 ft | 271 kts | 297° |
| 2026-05-03 21:57 | 26.46096 | -80.98565 | 10045 ft | 273 kts | 296° |
| 2026-05-03 21:57 | 26.47047 | -81.00402 | 10043 ft | 278 kts | 297° |
| 2026-05-03 21:57 | 26.48023 | -81.02266 | 10035 ft | 277 kts | 297° |
| 2026-05-03 21:58 | 26.48984 | -81.04110 | 10040 ft | 273 kts | 297° |
| 2026-05-03 21:58 | 26.49954 | -81.05976 | 10044 ft | 272 kts | 297° |
| 2026-05-03 21:58 | 26.50903 | -81.07800 | 10040 ft | 272 kts | 298° |
| 2026-05-03 21:58 | 26.51992 | -81.09500 | 10031 ft | 268 kts | 307° |
| 2026-05-03 21:59 | 26.53224 | -81.11039 | 10035 ft | 263 kts | 308° |
| 2026-05-03 21:59 | 26.54399 | -81.12557 | 10028 ft | 259 kts | 306° |
| 2026-05-03 21:59 | 26.55559 | -81.14099 | 10027 ft | 257 kts | 306° |
| 2026-05-03 21:59 | 26.56722 | -81.15629 | 10033 ft | 256 kts | 306° |
| 2026-05-03 22:00 | 26.57857 | -81.17117 | 10035 ft | 255 kts | 306° |
| 2026-05-03 22:00 | 26.59004 | -81.18624 | 10036 ft | 254 kts | 306° |
| 2026-05-03 22:00 | 26.60151 | -81.20132 | 10035 ft | 255 kts | 306° |
| 2026-05-03 22:00 | 26.61309 | -81.21653 | 10042 ft | 257 kts | 306° |
| 2026-05-03 22:01 | 26.62471 | -81.23182 | 10045 ft | 260 kts | 306° |
| 2026-05-03 22:01 | 26.63651 | -81.24734 | 10045 ft | 262 kts | 306° |
| 2026-05-03 22:01 | 26.64834 | -81.26286 | 10035 ft | 261 kts | 306° |
| 2026-05-03 22:01 | 26.66000 | -81.27827 | 10038 ft | 259 kts | 306° |
| 2026-05-03 22:02 | 26.67164 | -81.29358 | 10036 ft | 257 kts | 306° |
| 2026-05-03 22:02 | 26.68320 | -81.30881 | 10047 ft | 256 kts | 306° |
| 2026-05-03 22:02 | 26.69473 | -81.32400 | 10045 ft | 255 kts | 306° |
| 2026-05-03 22:02 | 26.70607 | -81.33894 | 10043 ft | 255 kts | 306° |
| 2026-05-03 22:03 | 26.71754 | -81.35407 | 10042 ft | 254 kts | 306° |
| 2026-05-03 22:03 | 26.72900 | -81.36920 | 10041 ft | 254 kts | 306° |
| 2026-05-03 22:03 | 26.74088 | -81.38393 | 10040 ft | 255 kts | 309° |
| 2026-05-03 22:03 | 26.75334 | -81.39815 | 10041 ft | 256 kts | 310° |
| 2026-05-03 22:04 | 26.76589 | -81.41230 | 10045 ft | 256 kts | 310° |
| 2026-05-03 22:04 | 26.77846 | -81.42640 | 10046 ft | 256 kts | 310° |
| 2026-05-03 22:04 | 26.79103 | -81.44047 | 10045 ft | 256 kts | 310° |
| 2026-05-03 22:04 | 26.80363 | -81.45454 | 10048 ft | 256 kts | 310° |
| 2026-05-03 22:05 | 26.81626 | -81.46861 | 10046 ft | 256 kts | 310° |
| 2026-05-03 22:05 | 26.82875 | -81.48252 | 10046 ft | 256 kts | 310° |
| 2026-05-03 22:05 | 26.84162 | -81.49683 | 10051 ft | 256 kts | 310° |
| 2026-05-03 22:05 | 26.85415 | -81.51075 | 10049 ft | 257 kts | 310° |
| 2026-05-03 22:06 | 26.85850 | -81.51558 | 10051 ft | 257 kts | 310° |